Disclaimer

Please do not use the information listed here in-flight or in-navigation, as they are not provided to us by the airports but are provided by volunteers, so they might be outdated.

Search


Regions


Airport information page

Radio informations:
Tower (TWR) - 122.1 MHz
RADAR - 123.3 MHz
LANGEN CON - 128.5 MHz

Airport informations:
Latitude: 50° 49' 52.20" N
Longitude: 006° 39' 29.40" E
Elevation: 386 feet - 118 meters
Operating hours: Remarks
Operating agency: Military
Timezone: UTC+1(+2DT) - Last Sunday in March to last Sunday in October
Fuel: JP-8, SemiKeroscene MIL Spec T-83133, without icing inhibitor

Runway information:
07/25 - 8003 x 148 feet< - >2439 x 45 meters

Recent METARs:
ETNN 181920Z AUTO 07008KT 9999 // ////// 01/M05 Q1024 ///
ETNN 181920Z AUTO 07008KT 9999 // ////// 01/M05 Q1024 ///
ETNN 182020Z AUTO 05006KT 9999 // ////// M00/M07 Q1024 ///

Airport on the map: